Time;durP1;ratioP1;P1;durP2;ratioP2;P2;SDS_P1;SDS_P2;PMS_P1;PMS_P2;Temp;Humidity;BMP_temperature;BMP_pressure;BME280_temperature;BME280_humidity;BME280_pressure;Samples;Min_cycle;Max_cycle;Signal;HPM_P1;HPM_P2
2023/08/24 00:00:18;;;;;;;6.57;4.50;;;19.30;99.90;;;;;;5040172;28;20572;-83
2023/08/24 00:02:44;;;;;;;6.40;4.60;;;19.30;99.90;;;;;;5041306;28;20456;-82
2023/08/24 00:05:11;;;;;;;7.13;4.63;;;19.30;99.90;;;;;;5040903;28;20463;-81
2023/08/24 00:07:38;;;;;;;6.10;4.30;;;19.30;99.90;;;;;;5040243;28;20448;-83
2023/08/24 00:10:05;;;;;;;4.80;4.30;;;19.30;99.90;;;;;;5028147;28;20488;-82
2023/08/24 00:12:35;;;;;;;6.83;5.23;;;19.30;99.90;;;;;;5039705;28;20983;-83
2023/08/24 00:15:02;;;;;;;6.57;4.73;;;19.30;99.90;;;;;;5038734;28;20543;-82
2023/08/24 00:17:30;;;;;;;8.00;5.80;;;19.20;99.90;;;;;;5038304;28;20460;-83
2023/08/24 00:19:57;;;;;;;6.97;5.20;;;19.20;99.90;;;;;;5036721;28;21096;-82
2023/08/24 00:22:27;;;;;;;7.80;4.73;;;19.20;99.90;;;;;;5036188;28;20461;-79
2023/08/24 00:24:54;;;;;;;6.17;5.10;;;19.20;99.90;;;;;;5035725;28;20457;-81
2023/08/24 00:27:21;;;;;;;11.07;5.90;;;19.10;99.90;;;;;;5039935;28;20452;-82
2023/08/24 00:29:47;;;;;;;5.73;5.13;;;19.10;99.90;;;;;;5040895;28;20484;-85
2023/08/24 00:32:14;;;;;;;7.30;4.90;;;19.10;99.90;;;;;;5041816;28;20461;-81
2023/08/24 00:34:42;;;;;;;8.17;5.10;;;19.10;99.90;;;;;;5040372;28;20544;-81
2023/08/24 00:37:09;;;;;;;7.30;4.90;;;19.00;99.90;;;;;;5040999;28;20926;-81
2023/08/24 00:39:37;;;;;;;6.17;4.60;;;19.00;99.90;;;;;;5050419;28;20452;-83
2023/08/24 00:42:04;;;;;;;8.93;5.40;;;19.00;99.90;;;;;;5041796;28;20854;-80
2023/08/24 00:44:31;;;;;;;8.27;4.77;;;19.00;99.90;;;;;;5043959;28;20536;-81
2023/08/24 00:46:59;;;;;;;6.60;4.60;;;19.00;99.90;;;;;;5039263;28;20453;-84
2023/08/24 00:49:26;;;;;;;7.67;4.70;;;19.00;99.90;;;;;;5038239;28;20449;-81
2023/08/24 00:51:55;;;;;;;6.50;5.13;;;18.90;99.90;;;;;;5037493;28;20512;-81
2023/08/24 00:54:21;;;;;;;6.73;4.40;;;18.90;99.90;;;;;;5039516;28;20449;-81
2023/08/24 00:56:48;;;;;;;7.77;5.27;;;18.90;99.90;;;;;;5037587;28;20540;-81
2023/08/24 00:59:15;;;;;;;6.50;4.70;;;18.90;99.90;;;;;;5037450;28;20544;-82
2023/08/24 01:01:45;;;;;;;8.57;5.70;;;18.90;99.90;;;;;;5037059;28;20560;-80
2023/08/24 01:04:12;;;;;;;8.37;5.57;;;18.90;99.90;;;;;;5037194;28;20471;-81
2023/08/24 01:06:39;;;;;;;5.83;4.67;;;18.80;99.90;;;;;;5037071;28;20532;-82
2023/08/24 01:09:08;;;;;;;7.10;5.00;;;18.80;99.90;;;;;;5037446;28;20456;-80
2023/08/24 01:11:46;;;;;;;8.37;5.17;;;18.80;99.90;;;;;;5038408;28;20612;-81
2023/08/24 01:14:22;;;;;;;8.13;5.30;;;18.80;99.90;;;;;;5042761;28;20956;-81
2023/08/24 01:16:51;;;;;;;9.50;5.10;;;18.70;99.90;;;;;;5037137;28;20452;-81
2023/08/24 01:19:28;;;;;;;9.10;5.30;;;18.70;99.90;;;;;;5047305;28;20907;-80
2023/08/24 01:21:56;;;;;;;6.90;5.10;;;18.70;99.90;;;;;;5037277;28;20451;-81
2023/08/24 01:24:37;;;;;;;7.03;4.83;;;18.70;99.90;;;;;;5038267;28;20449;-80
2023/08/24 01:27:06;;;;;;;7.80;4.87;;;18.70;99.90;;;;;;5038211;28;20437;-79
2023/08/24 01:29:33;;;;;;;9.33;5.23;;;18.70;99.90;;;;;;5036991;28;20457;-81
2023/08/24 01:32:00;;;;;;;6.63;5.53;;;18.70;99.90;;;;;;5056588;28;20491;-82
2023/08/24 01:34:27;;;;;;;7.47;5.33;;;18.60;99.90;;;;;;5057007;28;20490;-81
2023/08/24 01:36:54;;;;;;;5.80;5.03;;;18.60;99.90;;;;;;5056063;28;20447;-79
2023/08/24 01:39:30;;;;;;;6.63;5.13;;;18.70;99.90;;;;;;5042736;28;20465;-81
2023/08/24 01:42:00;;;;;;;8.63;5.50;;;18.60;99.90;;;;;;5036594;28;20483;-81
2023/08/24 01:44:32;;;;;;;8.67;5.50;;;18.60;99.90;;;;;;5040665;28;20540;-83
2023/08/24 01:47:02;;;;;;;7.10;5.57;;;18.60;99.90;;;;;;5038577;28;20456;-83
2023/08/24 01:49:30;;;;;;;7.03;5.30;;;18.50;99.90;;;;;;5039275;28;20445;-80
2023/08/24 01:51:58;;;;;;;12.37;5.97;;;18.50;99.90;;;;;;5037755;28;20560;-81
2023/08/24 01:54:25;;;;;;;7.70;5.50;;;18.50;99.90;;;;;;5037486;28;21041;-83
2023/08/24 01:56:52;;;;;;;6.70;5.40;;;18.50;99.90;;;;;;5037958;28;20449;-81
2023/08/24 01:59:18;;;;;;;9.57;6.20;;;18.50;99.90;;;;;;5037723;28;20453;-81
2023/08/24 02:01:47;;;;;;;8.00;5.27;;;18.50;99.90;;;;;;5037102;28;20484;-83
2023/08/24 02:04:14;;;;;;;10.17;5.80;;;18.50;99.90;;;;;;5036439;28;20461;-81
2023/08/24 02:06:40;;;;;;;5.37;4.20;;;18.50;99.90;;;;;;5036946;28;20456;-82
2023/08/24 02:09:07;;;;;;;6.20;5.53;;;18.50;99.90;;;;;;5036500;28;20471;-81
2023/08/24 02:11:34;;;;;;;7.43;5.60;;;18.50;99.90;;;;;;5036108;28;20576;-82
2023/08/24 02:14:01;;;;;;;5.33;4.83;;;18.50;99.90;;;;;;5036387;28;20464;-81
2023/08/24 02:16:28;;;;;;;8.00;5.40;;;18.40;99.90;;;;;;5035980;28;20465;-81
2023/08/24 02:18:56;;;;;;;7.23;4.80;;;18.40;99.90;;;;;;5036835;28;20449;-82
2023/08/24 02:21:23;;;;;;;8.50;5.13;;;18.40;99.90;;;;;;5036264;28;20468;-81
2023/08/24 02:23:49;;;;;;;8.33;5.17;;;18.40;99.90;;;;;;5036447;28;20453;-81
2023/08/24 02:26:16;;;;;;;7.67;4.90;;;18.40;99.90;;;;;;5036629;28;20544;-84
2023/08/24 02:28:43;;;;;;;5.80;4.97;;;18.40;99.90;;;;;;5036095;28;20457;-81
2023/08/24 02:31:10;;;;;;;8.10;6.57;;;18.40;99.90;;;;;;5035849;28;20488;-81
2023/08/24 02:33:37;;;;;;;6.87;5.23;;;18.40;99.90;;;;;;5035460;28;20448;-83
2023/08/24 02:36:05;;;;;;;10.03;5.57;;;18.40;99.90;;;;;;5035595;28;20460;-81
2023/08/24 02:38:32;;;;;;;8.70;5.20;;;18.30;99.90;;;;;;5035763;28;20449;-81
2023/08/24 02:41:03;;;;;;;7.67;6.03;;;18.30;99.90;;;;;;5035069;28;20552;-82
2023/08/24 02:43:30;;;;;;;8.10;5.90;;;18.30;99.90;;;;;;5035833;28;20856;-80
2023/08/24 02:46:01;;;;;;;8.20;5.53;;;18.30;99.90;;;;;;5035614;28;20555;-80
2023/08/24 02:48:28;;;;;;;6.50;5.50;;;18.30;99.90;;;;;;5035105;28;20995;-82
2023/08/24 02:50:54;;;;;;;8.43;5.80;;;18.20;99.90;;;;;;5035057;28;20492;-80
2023/08/24 02:53:23;;;;;;;9.50;6.03;;;18.20;99.90;;;;;;5035744;28;20457;-81
2023/08/24 02:55:50;;;;;;;9.93;5.80;;;18.20;99.90;;;;;;5035239;28;21009;-82
2023/08/24 02:58:17;;;;;;;6.87;5.90;;;18.20;99.90;;;;;;5035489;28;20460;-82
2023/08/24 03:00:43;;;;;;;8.00;6.00;;;18.20;99.90;;;;;;5035006;28;20571;-81
2023/08/24 03:03:10;;;;;;;7.43;5.17;;;18.20;99.90;;;;;;5036274;28;20539;-82
2023/08/24 03:05:37;;;;;;;6.77;5.33;;;18.10;99.90;;;;;;5035801;28;20463;-81
2023/08/24 03:08:04;;;;;;;8.47;5.23;;;18.10;99.90;;;;;;5035311;28;20453;-81
2023/08/24 03:10:36;;;;;;;9.33;6.23;;;18.20;99.90;;;;;;5034072;28;20846;-82
2023/08/24 03:13:03;;;;;;;8.00;5.90;;;18.20;99.90;;;;;;5033271;28;20481;-81
2023/08/24 03:15:31;;;;;;;7.90;5.40;;;18.20;99.90;;;;;;5045299;28;20556;-82
2023/08/24 03:17:57;;;;;;;7.00;5.30;;;18.20;99.90;;;;;;5044225;28;20457;-80
2023/08/24 03:20:24;;;;;;;9.57;6.43;;;18.20;99.90;;;;;;5052696;28;20464;-80
2023/08/24 03:22:51;;;;;;;7.93;5.83;;;18.20;99.90;;;;;;5054316;28;20448;-80
2023/08/24 03:25:18;;;;;;;7.80;5.67;;;18.20;99.90;;;;;;5041396;28;20453;-79
2023/08/24 03:27:47;;;;;;;6.70;5.57;;;18.20;99.90;;;;;;5034757;28;20457;-81
2023/08/24 03:30:14;;;;;;;9.30;5.30;;;18.30;99.90;;;;;;5035924;28;20479;-80
2023/08/24 03:32:41;;;;;;;6.80;5.40;;;18.30;99.90;;;;;;5035312;28;20942;-79
2023/08/24 03:35:09;;;;;;;7.23;6.23;;;18.30;99.90;;;;;;5035088;28;20463;-81
2023/08/24 03:37:35;;;;;;;12.10;6.50;;;18.30;99.90;;;;;;5033962;28;20461;-82
2023/08/24 03:40:03;;;;;;;7.10;5.50;;;18.30;99.90;;;;;;5035168;28;20992;-81
2023/08/24 03:42:31;;;;;;;8.83;6.03;;;18.40;99.90;;;;;;5033995;28;20453;-80
2023/08/24 03:45:00;;;;;;;10.03;6.00;;;18.40;99.90;;;;;;5035436;28;20543;-83
2023/08/24 03:47:27;;;;;;;8.70;6.90;;;18.30;99.90;;;;;;5034258;28;20455;-81
2023/08/24 03:49:54;;;;;;;7.23;5.40;;;18.40;99.90;;;;;;5033578;28;20559;-79
2023/08/24 03:52:22;;;;;;;7.27;5.30;;;18.40;99.90;;;;;;5034217;28;20484;-81
2023/08/24 03:54:48;;;;;;;9.23;6.20;;;18.40;99.90;;;;;;5033853;28;20459;-81
2023/08/24 03:57:16;;;;;;;6.50;5.33;;;18.50;99.90;;;;;;5033734;28;20453;-81
2023/08/24 03:59:43;;;;;;;9.00;6.00;;;18.50;99.90;;;;;;5033626;28;20946;-81
2023/08/24 04:02:11;;;;;;;7.97;6.23;;;18.50;99.90;;;;;;5033098;28;20457;-81
2023/08/24 04:04:38;;;;;;;8.03;6.03;;;18.50;99.90;;;;;;5033738;28;20453;-81
2023/08/24 04:07:05;;;;;;;8.50;6.50;;;18.60;99.90;;;;;;5034740;28;20453;-81
2023/08/24 04:09:31;;;;;;;8.73;6.20;;;18.60;99.90;;;;;;5033806;28;20540;-81
2023/08/24 04:11:58;;;;;;;9.87;6.17;;;18.60;99.90;;;;;;5034129;28;20492;-81
2023/08/24 04:14:25;;;;;;;9.20;7.33;;;18.60;99.90;;;;;;5033891;28;20483;-81
2023/08/24 04:16:52;;;;;;;7.60;6.03;;;18.60;99.90;;;;;;5033161;28;20449;-81
2023/08/24 04:19:20;;;;;;;10.20;6.83;;;18.70;99.90;;;;;;5033498;28;20980;-84
2023/08/24 04:21:47;;;;;;;11.00;6.70;;;18.70;99.90;;;;;;5033636;28;20477;-83
2023/08/24 04:24:14;;;;;;;11.00;7.23;;;18.70;99.90;;;;;;5033996;28;20463;-82
2023/08/24 04:26:41;;;;;;;11.60;7.00;;;18.70;99.90;;;;;;5033249;28;20467;-81
2023/08/24 04:29:08;;;;;;;10.93;6.87;;;18.80;99.90;;;;;;5033806;28;20458;-82
2023/08/24 04:31:35;;;;;;;9.07;6.27;;;18.70;99.90;;;;;;5034041;28;20487;-81
2023/08/24 04:34:01;;;;;;;9.00;6.80;;;18.70;99.90;;;;;;5036487;28;20459;-81
2023/08/24 04:36:30;;;;;;;10.53;6.90;;;18.80;99.90;;;;;;5035726;28;20516;-82
2023/08/24 04:38:56;;;;;;;10.83;7.50;;;18.70;99.90;;;;;;5034582;28;20829;-80
2023/08/24 04:41:23;;;;;;;10.80;7.33;;;18.80;99.90;;;;;;5034521;28;20555;-80
2023/08/24 04:43:49;;;;;;;9.13;6.50;;;18.80;99.90;;;;;;5034038;28;21097;-82
2023/08/24 04:46:16;;;;;;;9.60;7.17;;;18.80;99.90;;;;;;5033689;28;20545;-80
2023/08/24 04:48:42;;;;;;;12.30;8.30;;;18.80;99.90;;;;;;5031328;28;20267;-81
2023/08/24 04:51:09;;;;;;;10.70;8.60;;;18.80;99.90;;;;;;5025859;28;20483;-80
2023/08/24 04:53:37;;;;;;;11.27;7.40;;;18.80;99.90;;;;;;5034995;28;20460;-80
2023/08/24 04:56:05;;;;;;;12.73;7.87;;;18.80;99.90;;;;;;5034153;28;20456;-80
2023/08/24 04:58:34;;;;;;;12.27;7.60;;;18.80;99.90;;;;;;5031941;28;20463;-81
2023/08/24 05:01:01;;;;;;;9.67;7.60;;;18.80;99.90;;;;;;5040501;22;20502;-84
2023/08/24 05:03:28;;;;;;;14.53;8.77;;;18.80;99.90;;;;;;5012648;28;20445;-83
2023/08/24 05:05:54;;;;;;;12.60;8.40;;;18.80;99.90;;;;;;5010527;28;20913;-81
2023/08/24 05:08:21;;;;;;;10.90;8.30;;;18.80;99.90;;;;;;5012749;28;20485;-84
2023/08/24 05:10:49;;;;;;;12.00;7.70;;;18.90;99.90;;;;;;5012563;28;20469;-83
2023/08/24 05:13:16;;;;;;;11.60;8.40;;;18.90;99.90;;;;;;5014918;28;20485;-82
2023/08/24 05:15:43;;;;;;;12.73;8.23;;;18.90;99.90;;;;;;5015911;28;20453;-82
2023/08/24 05:18:10;;;;;;;11.07;7.30;;;18.90;99.90;;;;;;5015973;28;20467;-85
2023/08/24 05:20:36;;;;;;;10.63;7.43;;;18.90;99.90;;;;;;5016917;28;20479;-83
2023/08/24 05:23:04;;;;;;;10.03;7.23;;;18.90;99.90;;;;;;5017091;28;20754;-83
2023/08/24 05:25:30;;;;;;;11.60;8.50;;;18.90;99.90;;;;;;5017084;28;20541;-83
2023/08/24 05:27:59;;;;;;;8.67;6.77;;;18.80;99.90;;;;;;5016746;28;20508;-81
2023/08/24 05:30:28;;;;;;;7.90;6.67;;;18.80;99.90;;;;;;5016629;28;20478;-81
2023/08/24 05:32:55;;;;;;;8.47;6.83;;;18.80;99.90;;;;;;5016658;28;20516;-82
2023/08/24 05:35:23;;;;;;;7.50;6.00;;;18.80;99.90;;;;;;5016934;28;20454;-81
2023/08/24 05:37:50;;;;;;;11.17;6.60;;;18.80;99.90;;;;;;5016421;28;20545;-83
2023/08/24 05:40:17;;;;;;;8.87;6.63;;;18.70;99.90;;;;;;5007923;28;20462;-82
2023/08/24 05:42:44;;;;;;;8.23;7.13;;;18.70;99.90;;;;;;5016598;28;20537;-82
2023/08/24 05:45:12;;;;;;;9.93;6.63;;;18.70;99.90;;;;;;5011785;28;20525;-82
2023/08/24 05:47:39;;;;;;;9.00;6.97;;;18.70;99.90;;;;;;5006058;28;20460;-82
2023/08/24 05:50:07;;;;;;;9.13;5.93;;;18.70;99.90;;;;;;5014806;28;20450;-80
2023/08/24 05:52:34;;;;;;;7.90;5.60;;;18.70;99.90;;;;;;4996502;28;20504;-80
2023/08/24 05:55:01;;;;;;;7.10;6.40;;;18.80;99.90;;;;;;5004814;28;20489;-83
2023/08/24 05:57:28;;;;;;;8.50;6.40;;;18.80;99.90;;;;;;5015208;28;20477;-81
2023/08/24 05:59:55;;;;;;;11.50;7.53;;;18.80;99.90;;;;;;5016199;28;20468;-81
2023/08/24 06:02:23;;;;;;;10.23;6.73;;;18.80;99.90;;;;;;5015903;28;20495;-81
2023/08/24 06:04:50;;;;;;;9.90;5.90;;;18.90;99.90;;;;;;5017822;28;20446;-84
2023/08/24 06:07:18;;;;;;;10.63;6.40;;;18.90;99.90;;;;;;5016732;28;20522;-80
2023/08/24 06:09:45;;;;;;;11.80;6.43;;;18.90;99.90;;;;;;5016369;28;20484;-83
2023/08/24 06:12:11;;;;;;;7.50;6.00;;;19.00;99.90;;;;;;5014950;28;20482;-83
2023/08/24 06:14:38;;;;;;;7.60;6.10;;;19.00;99.90;;;;;;5028051;28;20545;-82
2023/08/24 06:17:05;;;;;;;7.73;5.53;;;19.10;99.90;;;;;;5015345;28;20464;-81
2023/08/24 06:19:33;;;;;;;7.13;5.37;;;19.10;99.90;;;;;;5016161;28;20454;-81
2023/08/24 06:22:00;;;;;;;8.70;5.47;;;19.20;99.90;;;;;;5016673;28;20469;-82
2023/08/24 06:24:26;;;;;;;6.83;5.03;;;19.30;99.90;;;;;;5016639;28;20464;-83
2023/08/24 06:26:53;;;;;;;9.67;6.07;;;19.30;99.90;;;;;;5013600;28;20533;-80
2023/08/24 06:29:20;;;;;;;10.40;5.17;;;19.40;99.90;;;;;;5009386;28;20834;-82
2023/08/24 06:31:47;;;;;;;9.60;5.73;;;19.40;99.90;;;;;;5012048;28;20484;-83
2023/08/24 06:34:14;;;;;;;11.33;6.20;;;19.50;99.90;;;;;;5008169;28;20489;-82
2023/08/24 06:36:42;;;;;;;6.83;5.47;;;19.50;99.90;;;;;;5011413;28;20515;-81
2023/08/24 06:39:09;;;;;;;8.97;5.70;;;19.60;99.90;;;;;;5009755;28;20469;-82
2023/08/24 06:41:36;;;;;;;7.93;5.10;;;19.60;99.90;;;;;;5023108;28;20564;-82
2023/08/24 06:44:03;;;;;;;7.50;4.73;;;19.60;99.90;;;;;;5020552;28;20505;-83
2023/08/24 06:46:30;;;;;;;9.90;6.40;;;19.70;99.90;;;;;;5014827;28;20473;-81
2023/08/24 06:48:57;;;;;;;10.00;5.57;;;19.70;99.90;;;;;;5014941;28;20450;-84
2023/08/24 06:51:24;;;;;;;6.67;5.70;;;19.70;99.90;;;;;;5019270;28;20489;-82
2023/08/24 06:53:52;;;;;;;7.43;5.93;;;19.80;99.90;;;;;;5013864;28;20880;-82
2023/08/24 06:56:19;;;;;;;9.90;5.37;;;19.90;99.90;;;;;;5015190;28;20445;-82
2023/08/24 06:58:46;;;;;;;9.30;6.20;;;19.90;99.90;;;;;;5013489;28;20966;-81
2023/08/24 07:01:13;;;;;;;7.90;5.47;;;19.90;99.90;;;;;;5013936;28;20492;-81
2023/08/24 07:03:40;;;;;;;8.90;6.47;;;20.00;99.90;;;;;;5022608;28;20481;-83
2023/08/24 07:06:07;;;;;;;7.57;5.77;;;20.00;99.90;;;;;;5014588;28;20456;-80
2023/08/24 07:08:34;;;;;;;9.23;5.40;;;20.00;99.90;;;;;;5015623;28;20851;-84
2023/08/24 07:11:03;;;;;;;6.77;5.00;;;20.10;99.90;;;;;;5009516;28;20486;-83
2023/08/24 07:13:29;;;;;;;7.27;5.27;;;20.20;99.90;;;;;;5012840;28;20486;-79
2023/08/24 07:15:56;;;;;;;7.83;5.13;;;20.20;99.90;;;;;;5010702;28;20458;-82
2023/08/24 07:18:23;;;;;;;8.87;4.90;;;20.20;99.90;;;;;;5011880;28;20464;-81
2023/08/24 07:20:50;;;;;;;11.07;5.10;;;20.30;99.90;;;;;;5011268;28;20469;-84
2023/08/24 07:23:17;;;;;;;5.80;4.30;;;20.30;99.90;;;;;;5012104;28;20481;-82
2023/08/24 07:25:44;;;;;;;8.30;5.20;;;20.40;99.90;;;;;;5011186;28;20934;-83
2023/08/24 07:28:12;;;;;;;7.10;5.30;;;20.50;99.90;;;;;;5011458;28;20465;-82
2023/08/24 07:30:39;;;;;;;5.90;4.57;;;20.60;99.90;;;;;;5012428;28;20474;-83
2023/08/24 07:33:06;;;;;;;6.20;4.33;;;20.60;99.90;;;;;;5009117;28;20493;-80
2023/08/24 07:35:33;;;;;;;5.03;4.53;;;20.70;99.90;;;;;;5014151;28;20451;-84
2023/08/24 07:37:59;;;;;;;7.20;4.80;;;20.70;99.90;;;;;;5008431;28;20516;-83
2023/08/24 07:40:27;;;;;;;7.70;4.53;;;20.80;99.90;;;;;;5011682;28;20470;-82
2023/08/24 07:42:56;;;;;;;8.27;5.10;;;20.90;99.90;;;;;;5006050;28;20467;-81
2023/08/24 07:45:24;;;;;;;6.00;4.70;;;20.90;99.90;;;;;;5007290;28;20477;-83
2023/08/24 07:47:54;;;;;;;5.93;4.00;;;21.00;99.90;;;;;;5011607;28;20512;-83
2023/08/24 07:50:22;;;;;;;6.07;4.00;;;21.10;99.90;;;;;;5011807;28;20956;-82
2023/08/24 07:52:49;;;;;;;8.43;4.60;;;21.20;99.90;;;;;;5009105;28;20907;-83
2023/08/24 07:55:17;;;;;;;6.17;3.80;;;21.30;99.90;;;;;;5004497;28;20460;-82
2023/08/24 07:57:44;;;;;;;6.90;3.70;;;21.30;99.90;;;;;;5009144;28;20553;-84
2023/08/24 08:00:13;;;;;;;5.13;3.87;;;21.40;99.90;;;;;;5007951;28;20476;-82
2023/08/24 08:02:41;;;;;;;5.57;3.77;;;21.50;99.90;;;;;;5009175;28;20843;-84
2023/08/24 08:05:10;;;;;;;5.60;4.17;;;21.60;99.90;;;;;;5006941;28;20553;-82
2023/08/24 08:07:37;;;;;;;5.47;3.40;;;21.70;99.90;;;;;;5002240;28;20456;-82
2023/08/24 08:10:06;;;;;;;5.13;3.07;;;21.70;99.90;;;;;;5009854;28;20477;-81
2023/08/24 08:12:33;;;;;;;4.33;3.50;;;21.80;99.90;;;;;;5010872;28;20917;-83
2023/08/24 08:15:00;;;;;;;5.60;4.30;;;21.90;99.90;;;;;;5000790;28;20464;-83
2023/08/24 08:17:30;;;;;;;3.50;2.73;;;21.90;99.90;;;;;;4992496;28;20460;-84
2023/08/24 08:19:58;;;;;;;6.70;3.97;;;22.10;99.90;;;;;;4999991;28;20464;-83
2023/08/24 08:22:26;;;;;;;6.47;3.63;;;22.20;99.90;;;;;;5009854;28;20474;-84
2023/08/24 08:24:53;;;;;;;4.03;3.27;;;22.30;99.90;;;;;;5008905;28;20458;-82
2023/08/24 08:27:21;;;;;;;4.80;3.43;;;22.40;99.90;;;;;;5009305;28;20493;-84
2023/08/24 08:29:48;;;;;;;3.67;2.90;;;22.50;99.90;;;;;;5010211;28;21099;-83
2023/08/24 08:32:14;;;;;;;5.03;3.07;;;22.70;99.90;;;;;;5013785;28;21049;-82
2023/08/24 08:34:43;;;;;;;4.40;3.57;;;22.80;99.90;;;;;;5010140;28;21034;-81
2023/08/24 08:37:11;;;;;;;4.47;3.47;;;23.00;99.90;;;;;;5000429;28;20529;-84
2023/08/24 08:39:38;;;;;;;4.50;3.50;;;23.10;99.90;;;;;;4998957;28;20460;-83
2023/08/24 08:42:05;;;;;;;5.50;3.60;;;23.30;99.90;;;;;;5014040;28;20476;-85
2023/08/24 08:44:33;;;;;;;6.33;3.03;;;23.30;99.90;;;;;;5014182;28;20553;-84
2023/08/24 08:47:00;;;;;;;5.33;3.43;;;23.50;99.90;;;;;;5020904;28;20557;-82
2023/08/24 08:49:28;;;;;;;8.10;3.63;;;23.70;99.90;;;;;;5018647;28;20541;-83
2023/08/24 08:51:55;;;;;;;4.10;3.00;;;23.90;99.90;;;;;;5018053;28;20470;-81
2023/08/24 08:54:23;;;;;;;5.20;3.80;;;24.00;99.90;;;;;;5010659;28;20572;-84
2023/08/24 08:56:51;;;;;;;4.43;2.97;;;24.20;99.90;;;;;;5020078;28;20454;-83
2023/08/24 08:59:18;;;;;;;8.10;2.97;;;24.40;99.90;;;;;;5014959;28;20471;-81
2023/08/24 09:01:47;;;;;;;5.87;3.30;;;24.50;99.90;;;;;;5015861;28;21089;-84
2023/08/24 09:04:14;;;;;;;5.03;3.60;;;24.60;99.90;;;;;;5013942;28;20556;-84
2023/08/24 09:06:41;;;;;;;4.30;3.27;;;24.70;99.90;;;;;;5016462;28;20453;-85
2023/08/24 09:09:09;;;;;;;4.20;3.20;;;24.80;99.90;;;;;;5010048;28;20457;-83
2023/08/24 09:11:38;;;;;;;4.90;3.27;;;24.90;99.90;;;;;;5016549;28;20481;-84
2023/08/24 09:14:05;;;;;;;6.00;2.83;;;25.00;99.90;;;;;;5015028;28;20519;-82
2023/08/24 09:16:34;;;;;;;5.33;3.10;;;25.10;99.90;;;;;;5016474;28;20453;-84
2023/08/24 09:19:05;;;;;;;4.10;2.90;;;25.20;99.90;;;;;;5010092;28;20458;-85
2023/08/24 09:21:32;;;;;;;3.70;3.20;;;25.20;99.90;;;;;;5014558;28;20532;-85
2023/08/24 09:23:59;;;;;;;5.03;3.53;;;25.30;99.90;;;;;;5014593;28;20449;-84
2023/08/24 09:26:29;;;;;;;4.30;2.40;;;25.40;99.90;;;;;;5015509;28;20818;-83
2023/08/24 09:28:58;;;;;;;4.70;2.90;;;25.50;99.90;;;;;;5008677;28;20488;-85
2023/08/24 09:31:35;;;;;;;6.00;2.73;;;25.70;99.90;;;;;;5012764;28;20512;-84
2023/08/24 09:34:03;;;;;;;6.30;3.10;;;25.80;99.90;;;;;;5013734;28;20668;-82
2023/08/24 09:36:32;;;;;;;4.47;2.83;;;26.00;99.90;;;;;;5015847;28;20462;-84
2023/08/24 09:39:00;;;;;;;3.53;2.60;;;26.20;99.90;;;;;;5013435;28;20460;-84
2023/08/24 09:41:38;;;;;;;5.63;3.30;;;26.40;99.90;;;;;;5016408;28;20569;-84
2023/08/24 09:44:07;;;;;;;4.67;3.17;;;26.50;99.90;;;;;;5001633;28;20543;-84
2023/08/24 09:46:33;;;;;;;3.93;3.20;;;26.60;99.90;;;;;;5017052;28;20454;-85
2023/08/24 09:49:01;;;;;;;5.60;2.97;;;26.70;99.90;;;;;;5015652;28;20458;-84
2023/08/24 09:51:28;;;;;;;5.50;3.20;;;26.90;99.90;;;;;;5015807;28;20476;-84
2023/08/24 09:53:58;;;;;;;4.90;3.20;;;27.00;99.90;;;;;;5022895;28;20487;-83
2023/08/24 09:56:28;;;;;;;4.50;3.17;;;27.10;99.90;;;;;;5015534;28;20450;-84
2023/08/24 09:58:56;;;;;;;4.70;3.23;;;27.20;99.90;;;;;;5007791;28;20459;-84
2023/08/24 10:01:25;;;;;;;5.30;2.60;;;27.30;99.90;;;;;;5013503;28;20870;-82
2023/08/24 10:03:55;;;;;;;5.60;3.27;;;27.40;99.90;;;;;;5014364;28;20545;-84
2023/08/24 10:06:24;;;;;;;5.70;3.23;;;27.50;99.90;;;;;;5017506;28;20453;-83
2023/08/24 10:08:58;;;;;;;4.30;3.13;;;27.60;99.90;;;;;;5013626;28;20455;-85
2023/08/24 10:11:29;;;;;;;6.77;3.23;;;27.70;99.90;;;;;;5009831;28;21029;-84
2023/08/24 10:14:06;;;;;;;5.73;3.37;;;27.80;99.90;;;;;;5010548;28;20871;-84
2023/08/24 10:16:37;;;;;;;4.00;3.07;;;27.90;99.90;;;;;;4997999;28;20994;-84
2023/08/24 10:19:04;;;;;;;6.87;3.60;;;28.00;99.90;;;;;;5006308;28;20530;-83
2023/08/24 10:21:31;;;;;;;5.30;3.70;;;28.10;99.90;;;;;;5015009;28;20543;-85
2023/08/24 10:24:00;;;;;;;4.43;2.50;;;28.10;99.90;;;;;;5016908;28;20449;-87
2023/08/24 10:26:27;;;;;;;6.60;4.10;;;28.20;99.90;;;;;;5004823;28;20545;-84
2023/08/24 10:28:54;;;;;;;5.60;2.87;;;28.20;99.90;;;;;;5000916;28;20454;-84
2023/08/24 10:31:21;;;;;;;4.50;2.90;;;28.20;99.90;;;;;;4998822;28;20493;-85
2023/08/24 10:33:50;;;;;;;4.33;3.17;;;28.20;99.90;;;;;;4997406;28;20486;-85
2023/08/24 10:36:18;;;;;;;4.70;2.90;;;28.40;99.90;;;;;;5011246;28;20452;-85
2023/08/24 10:38:44;;;;;;;3.73;2.33;;;28.50;99.90;;;;;;4997379;28;20840;-85
2023/08/24 10:41:26;;;;;;;4.10;2.30;;;28.50;99.90;;;;;;4997336;28;20467;-85
2023/08/24 10:44:04;;;;;;;4.93;2.80;;;28.50;99.90;;;;;;4997551;28;21076;-82
2023/08/24 10:46:36;;;;;;;3.00;2.40;;;28.60;99.90;;;;;;5003963;28;20453;-83
2023/08/24 10:49:07;;;;;;;4.33;2.90;;;28.60;99.90;;;;;;5014626;28;20453;-84
2023/08/24 10:51:44;;;;;;;4.57;2.80;;;28.60;99.90;;;;;;5006013;28;20479;-86
2023/08/24 10:54:11;;;;;;;5.50;2.43;;;28.60;99.90;;;;;;4997939;28;20942;-85
2023/08/24 10:56:39;;;;;;;3.90;2.30;;;28.60;99.90;;;;;;4997345;28;20537;-84
2023/08/24 10:59:14;;;;;;;5.20;2.40;;;28.60;99.90;;;;;;4997307;28;20447;-83
2023/08/24 11:01:42;;;;;;;4.60;3.17;;;28.60;99.90;;;;;;5028120;23;20583;-83
2023/08/24 11:04:12;;;;;;;4.50;2.77;;;28.60;99.90;;;;;;5028644;28;20528;-82
2023/08/24 11:06:53;;;;;;;4.67;2.57;;;28.60;99.90;;;;;;5021143;28;20481;-83
2023/08/24 11:09:20;;;;;;;4.33;2.53;;;28.30;99.90;;;;;;5037917;28;20456;-83
2023/08/24 11:11:58;;;;;;;4.87;2.23;;;28.50;99.90;;;;;;5025352;28;20517;-83
2023/08/24 11:14:26;;;;;;;3.60;2.60;;;28.70;99.90;;;;;;5031848;28;20477;-84
2023/08/24 11:16:54;;;;;;;3.37;2.50;;;28.80;99.90;;;;;;5034555;28;20572;-83
2023/08/24 11:19:23;;;;;;;4.20;2.40;;;28.90;99.90;;;;;;5019129;28;20938;-83
2023/08/24 11:21:49;;;;;;;4.83;2.43;;;29.00;99.90;;;;;;5028939;28;20596;-80
2023/08/24 11:24:18;;;;;;;3.70;2.20;;;29.10;99.90;;;;;;5038635;28;20449;-82
2023/08/24 11:26:46;;;;;;;3.77;2.60;;;29.20;99.90;;;;;;5036854;28;20453;-83
2023/08/24 11:29:13;;;;;;;5.63;3.13;;;29.20;99.90;;;;;;5031943;28;20461;-82
2023/08/24 11:31:40;;;;;;;2.83;2.13;;;29.10;99.90;;;;;;5038257;28;20810;-83
2023/08/24 11:34:08;;;;;;;4.33;2.57;;;28.90;99.90;;;;;;5041676;28;20512;-82
2023/08/24 11:36:45;;;;;;;3.40;2.60;;;28.90;99.90;;;;;;5040560;28;20449;-82
2023/08/24 11:39:23;;;;;;;4.23;2.40;;;28.80;99.90;;;;;;5022226;28;20457;-82
2023/08/24 11:42:01;;;;;;;5.53;2.63;;;28.60;99.90;;;;;;5024407;28;20473;-84
2023/08/24 11:44:28;;;;;;;3.70;2.77;;;28.50;99.90;;;;;;5025946;28;20453;-84
2023/08/24 11:46:58;;;;;;;5.03;2.93;;;28.30;99.90;;;;;;5025765;28;20462;-82
2023/08/24 11:49:25;;;;;;;2.97;1.93;;;28.30;99.90;;;;;;5037052;28;20461;-84
2023/08/24 11:51:54;;;;;;;4.40;2.67;;;28.20;99.90;;;;;;5036680;28;20536;-83
2023/08/24 11:54:21;;;;;;;6.23;2.80;;;28.00;99.90;;;;;;5038776;28;21097;-81
2023/08/24 11:56:51;;;;;;;3.10;2.30;;;27.90;99.90;;;;;;5036443;28;20932;-82
2023/08/24 11:59:18;;;;;;;3.17;2.33;;;27.70;99.90;;;;;;5020941;28;20519;-82
2023/08/24 12:01:47;;;;;;;4.50;2.40;;;27.50;99.90;;;;;;5023847;28;20534;-82
2023/08/24 12:04:14;;;;;;;4.13;2.70;;;27.30;99.90;;;;;;5028694;28;20441;-82
2023/08/24 12:06:41;;;;;;;5.37;3.30;;;27.10;99.90;;;;;;5035808;28;20532;-82
2023/08/24 12:09:09;;;;;;;7.90;3.47;;;27.00;99.90;;;;;;5035706;28;20457;-81
2023/08/24 12:11:38;;;;;;;5.73;3.23;;;26.90;99.90;;;;;;5033200;28;20520;-82
2023/08/24 12:14:06;;;;;;;6.90;2.53;;;26.90;99.90;;;;;;5031456;28;20486;-81
2023/08/24 12:16:34;;;;;;;5.00;2.73;;;26.90;99.90;;;;;;5024136;28;20488;-83
2023/08/24 12:19:03;;;;;;;4.73;2.80;;;26.90;99.90;;;;;;5033237;28;20543;-81
2023/08/24 12:21:30;;;;;;;5.20;2.70;;;26.90;99.90;;;;;;5038055;28;20499;-80
2023/08/24 12:23:59;;;;;;;3.70;2.13;;;26.80;99.90;;;;;;5032303;28;20536;-82
2023/08/24 12:26:27;;;;;;;3.93;2.73;;;26.90;99.90;;;;;;5038748;28;20910;-83
2023/08/24 12:28:56;;;;;;;4.60;2.77;;;26.90;99.90;;;;;;5041581;28;20537;-83
2023/08/24 12:31:27;;;;;;;3.80;2.43;;;26.90;99.90;;;;;;5030819;28;20560;-84
2023/08/24 12:34:03;;;;;;;4.30;2.37;;;27.00;99.90;;;;;;5044169;28;20449;-84
2023/08/24 12:36:30;;;;;;;3.80;2.20;;;27.00;99.90;;;;;;5047589;28;20452;-80
2023/08/24 12:38:58;;;;;;;5.30;2.60;;;27.00;99.90;;;;;;5054366;28;20460;-82
2023/08/24 12:41:26;;;;;;;4.13;2.47;;;26.80;99.90;;;;;;5050509;28;20532;-82
2023/08/24 12:43:53;;;;;;;3.70;2.40;;;26.70;99.90;;;;;;5041270;28;20536;-81
2023/08/24 12:46:20;;;;;;;4.33;2.83;;;26.80;99.90;;;;;;5035802;28;20900;-81
2023/08/24 12:48:47;;;;;;;7.20;2.83;;;26.70;99.90;;;;;;5029102;28;20452;-82